• Join FlightAware (Why Join?)
  • Login
  • US Flag 
01:37AM EST


 

Airport Tracker/Info


-or-


 

Live Flight TrackerFlight Track Log ✈ SWA3236 ✈ 02-Nov-2013 ✈ KMDW - KLAX

Flight Track Log - Related Links

Times and Time Zones

All times are in EDT time to prevent confusion due to time zone crossing. See the SWA3236 flight status page for this flight to view local times or setup timezone preferences in your user account.

Time Position Orientation Groundspeed Altitude Reporting Facility
EDT Latitude Longitude Course Direction KTS MPH feet Rate Location/Type
08:14PM 41.7930 -87.7630 313° West 147 169 1,100  Level FlightAware
08:14PM 41.7990 -87.7770 300° West 156 180 1,900 1,560 Climbing FlightAware
08:15PM 41.7920 -87.8050 251° West 208 239 2,300 1,320 Climbing FlightAware
08:15PM 41.7840 -87.8270 244° Southwest 229 264 2,900 2,160 Climbing FlightAware
08:15PM 41.7740 -87.8520 242° Southwest 239 275 3,600 1,500 Climbing FlightAware
08:16PM 41.7640 -87.8790 244° Southwest 249 287 3,900 480 Climbing FlightAware
08:16PM 41.7560 -87.9000 243° Southwest 252 290 3,900 720 Level FlightAware
08:16PM 41.7450 -87.9370 248° West 253 291 4,400 1,380 Climbing FlightAware
08:16PM 41.7450 -87.9440 270° West 252 290 4,600 3,360 Climbing FlightAware
08:17PM 41.7490 -88.0020 275° West 247 284 6,900 3,360 Climbing FlightAware
08:17PM 41.7520 -88.0470 275° West 258 297 8,400 3,060 Climbing FlightAware
08:18PM 41.7540 -88.0800 275° West 263 303 9,400 2,280 Climbing FlightAware
08:19PM 41.7600 -88.1820 275° West 318 366 11,300 1,800 Climbing FlightAware
08:19PM 41.7630 -88.2260 275° West 341 392 11,800 2,520 Climbing FlightAware
08:20PM 41.7690 -88.3270 275° West 348 400 14,300 2,820 Climbing FlightAware
08:21PM 41.7760 -88.4460 275° West 361 415 16,600 2,580 Climbing FlightAware
08:21PM 41.7790 -88.4990 274° West 365 420 17,700 2,520 Climbing FlightAware
08:22PM 41.7860 -88.6230 274° West 371 427 19,900 2,460 Climbing FlightAware
08:23PM 41.7940 -88.7560 275° West 370 426 22,300 2,340 Climbing FlightAware
08:24PM 41.7940 -88.8190 270° West 381 438 23,400 1,800 Climbing FlightAware
08:24PM 41.7800 -88.9380 261° West 399 459 24,700 1,620 Climbing FlightAware
08:25PM 41.7640 -89.0590 260° West 405 466 26,100 1,680 Climbing FlightAware
08:26PM 41.7560 -89.1170 260° West 407 468 26,700 1,440 Climbing FlightAware
08:26PM 41.7400 -89.2410 260° West 411 473 27,900 1,440 Climbing FlightAware
08:27PM 41.7240 -89.3550 259° West 412 474 29,000 1,260 Climbing FlightAware
08:28PM 41.7070 -89.4810 260° West 421 484 29,900 900 Climbing FlightAware
08:28PM 41.6980 -89.5480 260° West 426 490 30,200 1,440 Climbing FlightAware
08:29PM 41.6870 -89.6250 259° West 416 479 31,200 1,980 Climbing FlightAware
08:30PM 41.6700 -89.7520 260° West 392 451 33,000 900 Climbing FlightAware
08:31PM 41.6450 -89.9030 258° West 396 456 33,000  Level FlightAware
08:32PM 41.6270 -90.0150 258° West 399 459 33,100 480 Climbing FlightAware
08:32PM 41.6160 -90.0830 258° West 395 455 33,600 900 Climbing FlightAware
08:33PM 41.5950 -90.2140 258° West 399 459 34,400 660 Climbing FlightAware
08:34PM 41.5780 -90.3140 257° West 405 466 34,700 600 Climbing FlightAware
08:35PM 41.5590 -90.4290 258° West 407 468 35,300 840 Climbing FlightAware
08:35PM 41.5410 -90.5330 257° West 398 458 36,000 480 Climbing FlightAware
08:36PM 41.5240 -90.6380 258° West 393 452 36,000  Level FlightAware
08:37PM 41.5060 -90.7420 257° West 391 450 36,000  Level FlightAware
08:37PM 41.4930 -90.8180 257° West 391 450 36,000  Level FlightAware
08:38PM 41.4840 -90.8710 257° West 390 449 36,000  Level FlightAware
08:39PM 41.4570 -91.0300 257° West 393 452 36,000  Level FlightAware
08:40PM 41.4320 -91.1560 255° West 395 455 36,000  Level FlightAware
08:40PM 41.4150 -91.2470 256° West 394 453 36,000  Level FlightAware
08:41PM 41.3930 -91.3620 256° West 396 456 36,000  Level FlightAware
08:42PM 41.3770 -91.4490 256° West 396 456 36,000  Level FlightAware
08:42PM 41.3560 -91.5600 256° West 394 453 36,000  Level FlightAware
08:43PM 41.3360 -91.6620 255° West 392 451 36,000  Level FlightAware
08:44PM 41.3130 -91.7830 256° West 390 449 36,000  Level FlightAware
08:45PM 41.2900 -91.8980 255° West 389 448 36,000  Level FlightAware
08:46PM 41.2670 -92.0160 255° West 386 444 36,000  Level FlightAware
08:47PM 41.2420 -92.1410 255° West 385 443 36,000  Level FlightAware
08:47PM 41.2200 -92.2500 255° West 383 441 36,000  Level FlightAware
08:48PM 41.1970 -92.3660 255° West 381 438 36,000  Level FlightAware
08:49PM 41.1730 -92.4860 255° West 381 438 36,000  Level FlightAware
08:50PM 41.1630 -92.5400 256° West 381 438 36,000  Level FlightAware
08:51PM 41.1380 -92.6620 255° West 381 438 36,000  Level FlightAware
08:51PM 41.1150 -92.7740 255° West 383 441 36,000  Level FlightAware
08:52PM 41.0910 -92.8910 255° West 383 441 36,000  Level FlightAware
08:53PM 41.0810 -92.9370 254° West 385 443 36,000  Level FlightAware
08:53PM 41.0560 -93.0610 255° West 389 448 36,000  Level FlightAware
08:54PM 41.0400 -93.1400 255° West 392 451 36,000  Level FlightAware
08:55PM 41.0200 -93.2340 254° West 392 451 36,000  Level FlightAware
08:56PM 40.9970 -93.3460 255° West 393 452 36,000  Level FlightAware
08:56PM 40.9710 -93.4650 254° West 393 452 36,000  Level FlightAware
08:57PM 40.9480 -93.5780 255° West 392 451 36,000  Level FlightAware
08:58PM 40.9260 -93.6790 254° West 390 449 36,000  Level FlightAware
08:59PM 40.9070 -93.7700 255° West 385 443 36,000  Level FlightAware
08:59PM 40.8880 -93.8590 254° West 384 442 36,000  Level FlightAware
09:00PM 40.8650 -93.9630 254° West 384 442 36,000  Level FlightAware
09:01PM 40.8430 -94.0680 255° West 387 445 36,000  Level FlightAware
09:01PM 40.8310 -94.1220 254° West 389 448 36,000  Level FlightAware
09:02PM 40.8010 -94.2600 254° West 388 447 36,000  Level FlightAware
09:03PM 40.7730 -94.3860 254° West 388 447 36,000  Level FlightAware
09:04PM 40.7460 -94.5090 254° West 389 448 36,000  Level FlightAware
09:05PM 40.7260 -94.5980 254° West 390 449 36,000  Level FlightAware
09:05PM 40.7160 -94.6450 254° West 391 450 36,000  Level FlightAware
09:06PM 40.6810 -94.7970 253° West 392 451 36,000  Level FlightAware
09:07PM 40.6580 -94.9000 254° West 393 452 36,000  Level FlightAware
09:08PM 40.6340 -95.0070 254° West 392 451 36,000  Level FlightAware
09:08PM 40.6120 -95.1030 253° West 392 451 36,000  Level FlightAware
09:09PM 40.5830 -95.2300 253° West 392 451 36,000  Level FlightAware
09:10PM 40.5690 -95.2950 254° West 392 451 36,000  Level FlightAware
09:10PM 40.5530 -95.3630 253° West 391 450 36,000  Level FlightAware
09:11PM 40.5220 -95.4980 253° West 393 452 36,000  Level FlightAware
09:12PM 40.4940 -95.6150 253° West 392 451 36,000  Level FlightAware
09:13PM 40.4730 -95.7050 253° West 393 452 36,000  Level FlightAware
09:13PM 40.4590 -95.7680 254° West 392 451 36,000  Level FlightAware
09:14PM 40.4410 -95.8430 253° West 393 452 36,000  Level FlightAware
09:14PM 40.4200 -95.9310 253° West 394 453 36,000  Level FlightAware
09:15PM 40.3930 -96.0460 253° West 395 455 36,000  Level FlightAware
09:16PM 40.3670 -96.1540 252° West 397 457 36,000  Level FlightAware
09:17PM 40.3400 -96.2700 253° West 398 458 36,000  Level FlightAware
09:17PM 40.3260 -96.3260 252° West 398 458 36,000  Level FlightAware
09:18PM 40.2900 -96.4770 253° West 396 456 36,000  Level FlightAware
09:19PM 40.2680 -96.5660 252° West 396 456 36,000  Level FlightAware
09:19PM 40.2550 -96.6210 253° West 395 455 36,000  Level FlightAware
09:20PM 40.2220 -96.7580 253° West 394 453 36,000  Level FlightAware
09:21PM 40.1930 -96.8750 252° West 393 452 36,000  Level FlightAware
09:22PM 40.1620 -97.0020 252° West 393 452 36,000  Level FlightAware
09:23PM 40.1480 -97.0570 252° West 392 451 36,000  Level FlightAware
09:24PM 40.1180 -97.1790 252° West 392 451 36,000  Level FlightAware
09:24PM 40.0910 -97.2850 252° West 391 450 36,000  Level FlightAware
09:25PM 40.0770 -97.3420 252° West 391 450 36,000  Level FlightAware
09:26PM 40.0480 -97.4590 252° West 392 451 36,000  Level FlightAware
09:26PM 40.0190 -97.5740 252° West 391 450 36,000  Level FlightAware
09:27PM 39.9860 -97.7000 251° West 390 449 36,000  Level FlightAware
09:28PM 39.9660 -97.7820 252° West 391 450 36,000  Level FlightAware
09:29PM 39.9390 -97.8850 251° West 392 451 36,000  Level FlightAware
09:29PM 39.9340 -97.9060 253° West 393 452 36,000  Level FlightAware
09:30PM 39.8820 -98.1060 251° West 396 456 36,000  Level FlightAware
09:31PM 39.8780 -98.1220 252° West 396 456 36,000  Level FlightAware
09:32PM 39.8410 -98.2630 251° West 396 456 36,000  Level FlightAware
09:33PM 39.8090 -98.3890 252° West 398 458 36,000  Level FlightAware
09:34PM 39.7750 -98.5190 251° West 397 457 36,000  Level FlightAware
09:35PM 39.7430 -98.6400 251° West 397 457 36,000  Level FlightAware
09:35PM 39.7300 -98.6860 250° West 397 457 36,000  Level FlightAware
09:36PM 39.6990 -98.8030 251° West 397 457 36,000  Level FlightAware
09:37PM 39.6750 -98.8950 251° West 397 457 36,000  Level FlightAware
09:38PM 39.6510 -98.9870 251° West 397 457 36,000  Level FlightAware
09:38PM 39.6260 -99.0790 251° West 397 457 36,000  Level FlightAware
09:39PM 39.6020 -99.1710 251° West 397 457 36,000  Level FlightAware
09:40PM 39.5770 -99.2630 251° West 397 457 36,000  Level FlightAware
09:41PM 39.5530 -99.3550 251° West 397 457 36,000  Level FlightAware
09:42PM 39.5280 -99.4490 251° West 397 457 36,000  Level FlightAware
09:42PM 39.5030 -99.5430 251° West 397 457 36,000  Level FlightAware
09:43PM 39.4780 -99.6360 251° West 397 457 36,000  Level FlightAware
09:48PM 39.2400 -100.4730 250° West 389 448 36,000  Level FlightAware
09:49PM 39.2110 -100.5770 250° West 388 447 36,000  Level FlightAware
09:50PM 39.1840 -100.6710 250° West 389 448 36,000  Level FlightAware
09:50PM 39.1690 -100.7220 249° West 389 448 36,000  Level FlightAware
09:51PM 39.1470 -100.7980 250° West 389 448 36,000  Level FlightAware
09:51PM 39.1170 -100.9020 250° West 389 448 36,000  Level FlightAware
09:52PM 39.1010 -100.9600 250° West 390 449 36,000  Level FlightAware
09:53PM 39.0770 -101.0430 250° West 391 450 36,000  Level FlightAware
09:54PM 39.0390 -101.1700 249° West 393 452 36,000  Level FlightAware
09:54PM 39.0130 -101.2610 250° West 396 456 36,000  Level FlightAware
09:55PM 38.9820 -101.3670 249° West 397 457 36,000  Level FlightAware
09:56PM 38.9550 -101.4570 249° West 397 457 36,000  Level FlightAware
09:56PM 38.9240 -101.5640 250° West 397 457 36,000  Level FlightAware
09:57PM 38.8910 -101.6760 249° West 396 456 36,000  Level FlightAware
09:58PM 38.8560 -101.7920 249° West 398 458 36,000  Level FlightAware
09:59PM 38.8430 -101.8340 248° West 398 458 36,000  Level FlightAware
10:00PM 38.8050 -101.9630 249° West 398 458 36,000  Level FlightAware
10:00PM 38.7750 -102.0620 249° West 397 457 36,000  Level FlightAware
10:01PM 38.7410 -102.1760 249° West 395 455 36,000  Level FlightAware
10:02PM 38.7100 -102.2760 248° West 393 452 36,000  Level FlightAware
10:03PM 38.6750 -102.3910 249° West 390 449 36,000  Level FlightAware
10:04PM 38.6410 -102.5040 249° West 389 448 36,000  Level FlightAware
10:04PM 38.6090 -102.6090 249° West 389 448 36,000  Level FlightAware
10:05PM 38.5740 -102.7220 248° West 389 448 36,000  Level FlightAware
10:06PM 38.5580 -102.7720 248° West 388 447 36,000  Level FlightAware
10:07PM 38.5230 -102.8860 249° West 387 445 36,000  Level FlightAware
10:07PM 38.4970 -102.9710 249° West 386 444 36,000  Level FlightAware
10:08PM 38.4610 -103.0840 248° West 386 444 36,000  Level FlightAware
10:09PM 38.4440 -103.1380 248° West 385 443 36,000  Level FlightAware
10:09PM 38.4260 -103.1980 249° West 386 444 36,000  Level FlightAware
10:10PM 38.3860 -103.3220 248° West 385 443 36,000  Level FlightAware
10:11PM 38.3490 -103.4390 248° West 385 443 36,000  Level FlightAware
10:12PM 38.3210 -103.5270 248° West 384 442 36,000  Level FlightAware
10:13PM 38.2900 -103.6270 248° West 383 441 36,000  Level FlightAware
10:13PM 38.2590 -103.7220 247° West 381 438 36,000  Level FlightAware
10:14PM 38.2470 -103.7600 248° West 382 440 36,000  Level FlightAware
10:15PM 38.2100 -103.8750 248° West 379 436 36,000  Level FlightAware
10:15PM 38.1950 -103.9220 248° West 379 436 36,000  Level FlightAware
10:16PM 38.1630 -104.0210 248° West 378 435 36,000  Level FlightAware
10:17PM 38.1240 -104.1410 248° West 376 433 36,000  Level FlightAware
10:17PM 38.0960 -104.2290 248° West 376 433 36,000  Level FlightAware
10:18PM 38.0610 -104.3340 247° West 375 432 36,000  Level FlightAware
10:19PM 38.0260 -104.4420 248° West 377 434 36,000  Level FlightAware
10:20PM 38.0080 -104.4980 248° West 374 430 36,000  Level FlightAware
10:20PM 37.9780 -104.5870 247° West 380 437 36,000  Level FlightAware
10:21PM 37.9450 -104.6870 247° West 374 430 36,000  Level FlightAware
10:22PM 37.9100 -104.7940 248° West 385 443 36,000  Level FlightAware
10:23PM 37.8740 -104.9030 247° West 376 433 36,000  Level FlightAware
10:24PM 37.8460 -104.9840 246° West 380 437 36,000  Level FlightAware
10:24PM 37.8140 -105.0810 247° West 382 440 36,000  Level FlightAware
10:25PM 37.7850 -105.1680 247° West 380 437 36,000  Level FlightAware
10:26PM 37.7500 -105.2720 247° West 383 441 36,000  Level FlightAware
10:27PM 37.7240 -105.3460 246° West 381 438 36,000  Level FlightAware
10:27PM 37.6840 -105.4670 247° West 386 444 36,000  Level FlightAware
10:28PM 37.6560 -105.5680 251° West 387 445 36,000  Level FlightAware
10:29PM 37.6330 -105.6770 255° West 383 441 36,000  Level FlightAware
10:30PM 37.6150 -105.7590 255° West 378 435 36,000  Level FlightAware
10:31PM 37.5940 -105.8550 255° West 370 426 36,000  Level FlightAware
10:31PM 37.5830 -105.9080 255° West 369 425 36,000  Level FlightAware
10:32PM 37.5530 -106.0420 254° West 367 422 36,000  Level FlightAware
10:33PM 37.5270 -106.1600 255° West 370 426 36,000  Level FlightAware
10:34PM 37.5110 -106.2350 255° West 373 429 36,000  Level FlightAware
10:34PM 37.4880 -106.3360 254° West 370 426 36,000  Level FlightAware
10:35PM 37.4600 -106.4620 254° West 367 422 36,000  Level FlightAware
10:36PM 37.4380 -106.5600 254° West 370 426 36,000  Level FlightAware
10:37PM 37.4070 -106.6960 254° West 377 434 36,000  Level FlightAware
10:38PM 37.3850 -106.7960 255° West 377 434 36,000  Level FlightAware
10:39PM 37.3630 -106.8920 254° West 377 434 36,000  Level FlightAware
10:40PM 37.3380 -106.9990 254° West 376 433 36,000  Level FlightAware
10:40PM 37.3170 -107.0940 254° West 376 433 36,000  Level FlightAware
10:41PM 37.2900 -107.2090 254° West 374 430 36,000  Level FlightAware
10:42PM 37.2610 -107.3330 254° West 372 428 36,000  Level FlightAware
10:43PM 37.2500 -107.3840 255° West 372 428 36,000  Level FlightAware
10:44PM 37.2230 -107.4990 254° West 371 427 36,000  Level FlightAware
10:44PM 37.2030 -107.5820 253° West 371 427 36,000  Level FlightAware
10:45PM 37.1910 -107.6350 254° West 372 428 36,000  Level FlightAware
10:45PM 37.1760 -107.6980 253° West 372 428 36,000  Level FlightAware
10:46PM 37.1440 -107.8320 253° West 374 430 36,000  Level FlightAware
10:47PM 37.1160 -107.9530 254° West 374 430 36,000  Level FlightAware
10:48PM 37.0930 -108.0470 253° West 372 428 36,000  Level FlightAware
10:49PM 37.0680 -108.1500 253° West 370 426 36,000  Level FlightAware
10:50PM 37.0440 -108.2530 254° West 369 425 36,000  Level FlightAware
10:51PM 37.0160 -108.3680 253° West 370 426 36,000  Level FlightAware
10:52PM 36.9870 -108.4860 253° West 371 427 36,000  Level FlightAware
10:52PM 36.9650 -108.5770 253° West 372 428 36,000  Level FlightAware
10:53PM 36.9540 -108.6200 252° West 372 428 36,000  Level FlightAware
10:54PM 36.9230 -108.7460 253° West 375 432 36,000  Level FlightAware
10:54PM 36.9100 -108.8020 254° West 375 432 36,000  Level FlightAware
10:55PM 36.8970 -108.8510 252° West 375 432 36,000  Level FlightAware
10:56PM 36.8710 -108.9580 253° West 372 428 36,000  Level FlightAware
10:57PM 36.8380 -109.0850 252° West 372 428 36,000  Level FlightAware
10:57PM 36.8270 -109.1260 251° West 372 428 36,000  Level FlightAware
10:58PM 36.8100 -109.1910 252° West 372 428 36,000  Level FlightAware
10:59PM 36.7890 -109.2740 252° West 372 428 36,000  Level FlightAware
10:59PM 36.7670 -109.3580 252° West 372 428 36,000  Level FlightAware
11:00PM 36.7450 -109.4410 252° West 372 428 36,000  Level FlightAware
11:01PM 36.7230 -109.5240 252° West 372 428 36,000  Level FlightAware
11:02PM 36.6960 -109.6280 252° West 372 428 36,000  Level FlightAware
11:03PM 36.6750 -109.7120 253° West 372 428 36,000  Level FlightAware
11:03PM 36.6640 -109.7530 252° West 372 428 36,000  Level FlightAware
11:04PM 36.6370 -109.8570 252° West 372 428 36,000  Level FlightAware
11:05PM 36.6140 -109.9420 251° West 372 428 36,000  Level FlightAware
11:07PM 36.5200 -110.3330 253° West 376 433 36,000  Level FlightAware
11:08PM 36.4910 -110.4420 252° West 376 433 36,000  Level FlightAware
11:08PM 36.4650 -110.5400 252° West 377 434 36,000  Level FlightAware
11:09PM 36.4350 -110.6550 252° West 377 434 36,000  Level FlightAware
11:10PM 36.4060 -110.7630 252° West 375 432 36,000  Level FlightAware
11:11PM 36.3930 -110.8110 251° West 375 432 36,000  Level FlightAware
11:12PM 36.3620 -110.9280 252° West 374 430 36,000  Level FlightAware
11:12PM 36.3340 -111.0310 251° West 377 434 36,000  Level FlightAware
11:13PM 36.3100 -111.1200 252° West 380 437 36,000  Level FlightAware
11:14PM 36.2780 -111.2380 251° West 384 442 36,000  Level FlightAware
11:15PM 36.2510 -111.3380 252° West 387 445 36,000  Level FlightAware
11:16PM 36.2210 -111.4470 251° West 389 448 36,000  Level FlightAware
11:17PM 36.1880 -111.5690 252° West 390 449 36,000  Level FlightAware
11:17PM 36.1580 -111.6700 250° West 391 450 36,000  Level FlightAware
11:18PM 36.1230 -111.7700 247° West 393 452 36,000  Level FlightAware
11:19PM 36.0920 -111.8590 247° West 394 453 36,000  Level FlightAware
11:20PM 36.0510 -111.9780 247° West 395 455 36,000  Level FlightAware
11:21PM 36.0250 -112.0510 246° West 395 455 36,000  Level FlightAware
11:21PM 35.9910 -112.1480 247° West 395 455 36,000  Level FlightAware
11:22PM 35.9580 -112.2440 247° West 394 453 36,000  Level FlightAware
11:23PM 35.9190 -112.3530 246° West 400 460 36,000  Level FlightAware
11:23PM 35.8990 -112.4090 246° West 401 461 36,000  Level FlightAware
11:24PM 35.8750 -112.4770 246° West 401 461 36,000  Level FlightAware
11:25PM 35.8370 -112.5850 247° West 403 464 36,000  Level FlightAware
11:26PM 35.7960 -112.6990 246° West 406 467 36,000  Level FlightAware
11:27PM 35.7590 -112.8040 247° West 408 470 36,000  Level FlightAware
11:27PM 35.7260 -112.8950 246° West 409 471 36,000  Level FlightAware
11:28PM 35.7090 -112.9420 246° West 409 471 36,000  Level FlightAware
11:28PM 35.6720 -113.0440 246° West 411 473 36,000  Level FlightAware
11:29PM 35.6390 -113.1350 246° West 413 475 36,000  Level FlightAware
11:30PM 35.6000 -113.2450 246° West 414 476 36,000  Level FlightAware
11:31PM 35.5600 -113.3550 246° West 415 478 36,000  Level FlightAware
11:32PM 35.5280 -113.4420 246° West 415 478 36,000  Level FlightAware
11:32PM 35.4850 -113.5580 246° West 416 479 36,000  Level FlightAware
11:33PM 35.4660 -113.6100 246° West 415 478 36,000  Level FlightAware
11:34PM 35.4270 -113.7160 246° West 415 478 36,000  Level FlightAware
11:34PM 35.3950 -113.8050 246° West 414 476 36,000  Level FlightAware
11:35PM 35.3570 -113.9060 245° Southwest 413 475 36,000  Level FlightAware
11:36PM 35.3170 -114.0140 246° West 414 476 36,000  Level FlightAware
11:37PM 35.2820 -114.1080 246° West 414 476 36,000  Level FlightAware
11:38PM 35.2440 -114.2100 246° West 416 479 36,000  Level FlightAware
11:38PM 35.2080 -114.3060 245° Southwest 418 481 36,000  Level FlightAware
11:39PM 35.1880 -114.3590 245° Southwest 418 481 36,000  Level FlightAware
11:40PM 35.1470 -114.4670 245° Southwest 419 482 36,000  Level FlightAware
11:40PM 35.1080 -114.5700 245° Southwest 420 483 36,000  Level FlightAware
11:41PM 35.0720 -114.6650 245° Southwest 421 484 36,000  Level FlightAware
11:42PM 35.0310 -114.7720 245° Southwest 421 484 36,000  Level FlightAware
11:43PM 34.9910 -114.8790 245° Southwest 423 487 36,000  Level FlightAware
11:43PM 34.9680 -114.9360 244° Southwest 423 487 36,000  Level FlightAware
11:44PM 34.9260 -115.0480 245° Southwest 424 488 36,000  Level FlightAware
11:45PM 34.8780 -115.1710 245° Southwest 424 488 36,000  Level FlightAware
11:46PM 34.8350 -115.2820 245° Southwest 424 488 36,000  Level FlightAware
11:47PM 34.7970 -115.3800 245° Southwest 424 488 36,000  Level FlightAware
11:48PM 34.7480 -115.5060 245° Southwest 425 489 36,000  Level FlightAware
11:48PM 34.7100 -115.6050 245° Southwest 426 490 36,000  Level FlightAware
11:48PM 34.6980 -115.6340 243° Southwest 427 491 36,000  Level FlightAware
11:49PM 34.6690 -115.7090 245° Southwest 427 491 36,000  Level FlightAware
11:50PM 34.6210 -115.8300 244° Southwest 428 493 36,000  Level FlightAware
11:51PM 34.5730 -115.9520 244° Southwest 428 493 36,000  Level FlightAware
11:51PM 34.5530 -116.0030 245° Southwest 428 493 36,000  Level FlightAware
11:52PM 34.5040 -116.1270 244° Southwest 428 493 36,000 -480 Level FlightAware
11:53PM 34.4570 -116.2450 244° Southwest 431 496 35,200 -1,560 Descending FlightAware
11:54PM 34.4110 -116.3610 244° Southwest 433 498 33,200 -2,520 Descending FlightAware
11:55PM 34.3680 -116.4670 244° Southwest 441 507 31,000 -2,700 Descending FlightAware
11:55PM 34.3470 -116.5200 244° Southwest 445 512 30,000 -2,640 Descending FlightAware
11:56PM 34.3010 -116.6350 244° Southwest 444 511 27,700 -2,940 Descending FlightAware
11:57PM 34.2790 -116.6890 244° Southwest 445 512 26,300 -2,700 Descending FlightAware
11:57PM 34.2330 -116.8030 244° Southwest 428 493 24,300 -2,280 Descending FlightAware
11:58PM 34.1910 -116.9070 244° Southwest 411 473 22,500 -2,160 Descending FlightAware
11:59PM 34.1550 -116.9950 244° Southwest 397 457 21,000 -2,100 Descending FlightAware
12:00AM 34.1120 -117.1000 244° Southwest 384 442 19,100 -2,040 Descending FlightAware
12:00AM 34.0950 -117.1380 242° Southwest 378 435 18,500 -2,100 Descending FlightAware
12:01AM 34.0500 -117.2500 244° Southwest 360 414 16,300 -2,340 Descending FlightAware
12:02AM 34.0400 -117.3430 263° West 348 400 14,300 -2,220 Descending FlightAware
12:03AM 34.0300 -117.4410 263° West 341 392 12,600 -1,920 Descending FlightAware
12:03AM 34.0250 -117.4860 262° West 336 387 11,900 -1,860 Descending FlightAware
12:04AM 34.0200 -117.5380 263° West 330 380 11,000 -1,200 Descending FlightAware
12:05AM 34.0110 -117.6360 264° West 289 333 10,300 -660 Descending FlightAware
12:05AM 34.0060 -117.6950 264° West 269 310 10,000 -840 Descending FlightAware
12:06AM 34.0020 -117.7320 263° West 272 313 9,400 -1,320 Descending FlightAware
12:06AM 33.9990 -117.7700 265° West 275 316 8,900 -1,260 Descending FlightAware
12:06AM 33.9960 -117.7990 263° West 277 319 8,500 -1,380 Descending FlightAware
12:07AM 33.9920 -117.8380 263° West 275 316 7,900 -1,320 Descending FlightAware
12:08AM 33.9850 -117.9060 263° West 267 307 7,000 -1,260 Descending FlightAware
12:08AM 33.9820 -117.9390 264° West 258 297 6,500 -1,080 Descending FlightAware
12:08AM 33.9790 -117.9700 263° West 243 280 6,200 -840 Descending FlightAware
12:09AM 33.9760 -118.0010 263° West 233 268 5,900 -840 Descending FlightAware
12:09AM 33.9730 -118.0260 262° West 227 261 5,600 -900 Descending FlightAware
12:10AM 33.9690 -118.0690 264° West 220 253 5,100 -960 Descending FlightAware
12:10AM 33.9660 -118.0980 263° West 220 253 4,700 -1,200 Descending FlightAware
12:11AM 33.9630 -118.1310 264° West 211 243 4,100 -1,140 Descending FlightAware
12:11AM 33.9600 -118.1540 261° West 202 232 3,800 -960 Descending FlightAware
12:11AM 33.9590 -118.1680 265° West 190 219 3,600 -1,080 Descending FlightAware
12:12AM 33.9560 -118.1990 263° West 170 196 3,000 -900 Descending FlightAware
12:12AM 33.9540 -118.2170 262° West 160 184 2,800 -720 Descending FlightAware
12:12AM 33.9520 -118.2360 263° West 157 181 2,500 -960 Descending FlightAware
12:13AM 33.9490 -118.2640 263° West 157 181 2,000 -900 Descending FlightAware
12:13AM 33.9480 -118.2730 262° West 157 181 1,900 -780 Descending FlightAware
12:14AM 33.9460 -118.2960 264° West 156 180 1,500 -840 Descending FlightAware
12:14AM 33.9440 -118.3130 262° West 155 178 1,300 -840 Descending FlightAware
12:14AM 33.9420 -118.3410 265° West 156 180 800 -900 Descending FlightAware
12:15AM 33.9390 -118.3620 260° West 154 177 500 -360 Descending FlightAware
12:15AM 33.9370 -118.3830 263° West 153 176 500 -240 Level FlightAware
12:16AM 33.9347 -118.4164 263° West 156 180 200 -420 Descending Los Angeles Center
12:18AM 33.9333 -118.4000 North  Level FlightAware Approximate